Hovedside
METAR-TAF:

METAR-TAF

Lufthavner :

Luleå, Sverige

Luleå lufthavn

breddegrad: 65-33N, lengdegrad: 022-08E, høyde over havet: 17 m

Gjeldene værobservasjon

Denne rapporten ble laget for 22 minutter siden, klokken 04:20 UTC
Vind 6 kt fra Nordøst
Temperatur -1°C
Luftfuktighet 100%
Trykk 1007 hPa
Sikt 10 km eller mer
Brutte skyer i en høyde av 400 ft

METAR: ESPA 250420Z 05006KT 9999 BKN004 M01/M01 Q1007

Tid: 06:42 (04:42 UTC)

Varsel

Denne rapporten ble laget for 22 minutter siden, klokken 04:20 UTC
Varsel gyldig fra 25. klokken 04 UTC til 25. klokken 12 UTC
Vind 5 kt fra Nordøst
Sikt 10 km eller mer
Brutte skyer i en høyde av 600 ft
Sannsynlighet 40%
fra 25. klokken 04 UTC til 25. klokken 06 UTC
Sikt: 0500 m
i en høyde av 200 ft
underkjølt tåke
Sannsynlighet 40%
fra 25. klokken 06 UTC til 25. klokken 12 UTC
Brutte skyer i en høyde av 400 ft

TAF: ESPA 250420Z 2504/2512 05005KT 9999 BKN006 PROB40 2504/2506 0500 FZFG VV002 PROB40 2506/2512 BKN004 RMK MIL

Værobservasjoner og værvarsel for over 4000 flyplasser (METAR- og TAF-rapporter).

Tilgjengelige stasjoner er representert av de røde og gule prikkene på kartet.

Hold musepekeren over prikken for å se navnet på stasjonen.

Klikk så for å se værobservasjoner og -varsler.

For å forandre kartet kan du klikke på den grønne knappen med svart kryss for å zoome inn, på den grønne knappen med strek for å zoome ut, eller på de grønne pilene for å se tilstøtende kart.


METAR-TAF: